sensor_id;sensor_type;location;lat;lon;timestamp;P1;durP1;ratioP1;P2;durP2;ratioP2
58874;SDS011;44652;49.040;12.126;2023-02-11T07:12:45;76.15;;;38.10;;
58874;SDS011;44652;49.040;12.126;2023-02-11T07:15:12;74.05;;;40.47;;
58874;SDS011;44652;49.040;12.126;2023-02-11T07:17:38;71.65;;;39.28;;
58874;SDS011;44652;49.040;12.126;2023-02-11T07:20:05;73.53;;;38.75;;
58874;SDS011;44652;49.040;12.126;2023-02-11T07:22:32;72.10;;;39.60;;
58874;SDS011;44652;49.040;12.126;2023-02-11T07:24:59;68.28;;;39.63;;
58874;SDS011;44652;49.040;12.126;2023-02-11T07:27:25;77.82;;;41.47;;
58874;SDS011;44652;49.040;12.126;2023-02-11T07:29:52;73.43;;;42.28;;
58874;SDS011;44652;49.040;12.126;2023-02-11T07:32:18;73.63;;;39.72;;
58874;SDS011;44652;49.040;12.126;2023-02-11T07:34:47;78.13;;;40.60;;
58874;SDS011;44652;49.040;12.126;2023-02-11T07:37:14;65.15;;;38.75;;
58874;SDS011;44652;49.040;12.126;2023-02-11T07:39:41;70.35;;;39.25;;
58874;SDS011;44652;49.040;12.126;2023-02-11T07:42:07;71.57;;;38.58;;
58874;SDS011;44652;49.040;12.126;2023-02-11T07:44:34;68.75;;;37.80;;
58874;SDS011;44652;49.040;12.126;2023-02-11T07:47:02;72.22;;;38.05;;
58874;SDS011;44652;49.040;12.126;2023-02-11T07:49:29;64.97;;;36.63;;
58874;SDS011;44652;49.040;12.126;2023-02-11T07:51:55;67.55;;;37.00;;
58874;SDS011;44652;49.040;12.126;2023-02-11T07:54:22;63.58;;;38.00;;
58874;SDS011;44652;49.040;12.126;2023-02-11T07:56:48;66.25;;;37.55;;
58874;SDS011;44652;49.040;12.126;2023-02-11T07:59:15;63.17;;;36.67;;
58874;SDS011;44652;49.040;12.126;2023-02-11T08:01:41;74.60;;;37.88;;
58874;SDS011;44652;49.040;12.126;2023-02-11T08:04:08;68.82;;;37.03;;
58874;SDS011;44652;49.040;12.126;2023-02-11T08:06:38;68.82;;;38.50;;
58874;SDS011;44652;49.040;12.126;2023-02-11T08:09:06;70.45;;;36.28;;
58874;SDS011;44652;49.040;12.126;2023-02-11T08:11:33;68.85;;;37.95;;
58874;SDS011;44652;49.040;12.126;2023-02-11T08:13:59;69.65;;;38.97;;
58874;SDS011;44652;49.040;12.126;2023-02-11T08:16:33;62.05;;;35.72;;
58874;SDS011;44652;49.040;12.126;2023-02-11T08:19:01;68.50;;;37.45;;
58874;SDS011;44652;49.040;12.126;2023-02-11T08:21:28;62.00;;;37.43;;
58874;SDS011;44652;49.040;12.126;2023-02-11T08:23:57;69.55;;;36.30;;
58874;SDS011;44652;49.040;12.126;2023-02-11T08:26:25;61.50;;;35.92;;
58874;SDS011;44652;49.040;12.126;2023-02-11T08:28:52;68.38;;;38.83;;
58874;SDS011;44652;49.040;12.126;2023-02-11T08:31:20;63.85;;;36.53;;
58874;SDS011;44652;49.040;12.126;2023-02-11T08:33:47;64.55;;;37.17;;
58874;SDS011;44652;49.040;12.126;2023-02-11T08:36:15;66.03;;;36.10;;
58874;SDS011;44652;49.040;12.126;2023-02-11T08:38:42;61.13;;;36.92;;
58874;SDS011;44652;49.040;12.126;2023-02-11T08:41:09;64.47;;;36.05;;
58874;SDS011;44652;49.040;12.126;2023-02-11T08:43:36;62.53;;;34.08;;
58874;SDS011;44652;49.040;12.126;2023-02-11T08:46:07;60.22;;;35.03;;
58874;SDS011;44652;49.040;12.126;2023-02-11T08:48:34;60.90;;;37.10;;
58874;SDS011;44652;49.040;12.126;2023-02-11T08:51:04;61.58;;;33.67;;
58874;SDS011;44652;49.040;12.126;2023-02-11T08:53:31;60.35;;;34.45;;
58874;SDS011;44652;49.040;12.126;2023-02-11T08:55:57;58.45;;;33.90;;
58874;SDS011;44652;49.040;12.126;2023-02-11T08:58:24;58.00;;;33.13;;
58874;SDS011;44652;49.040;12.126;2023-02-11T09:00:50;61.20;;;35.40;;
58874;SDS011;44652;49.040;12.126;2023-02-11T09:03:17;54.33;;;33.17;;
58874;SDS011;44652;49.040;12.126;2023-02-11T09:05:45;56.28;;;33.30;;
58874;SDS011;44652;49.040;12.126;2023-02-11T09:08:12;56.83;;;33.70;;
58874;SDS011;44652;49.040;12.126;2023-02-11T09:10:39;53.80;;;34.00;;
58874;SDS011;44652;49.040;12.126;2023-02-11T09:13:06;63.58;;;35.65;;
58874;SDS011;44652;49.040;12.126;2023-02-11T09:15:32;65.55;;;36.88;;
58874;SDS011;44652;49.040;12.126;2023-02-11T09:17:59;59.92;;;34.95;;
58874;SDS011;44652;49.040;12.126;2023-02-11T09:20:26;61.70;;;36.55;;
58874;SDS011;44652;49.040;12.126;2023-02-11T09:22:53;59.78;;;37.15;;
58874;SDS011;44652;49.040;12.126;2023-02-11T09:25:20;63.53;;;36.83;;
58874;SDS011;44652;49.040;12.126;2023-02-11T09:27:46;62.30;;;36.17;;
58874;SDS011;44652;49.040;12.126;2023-02-11T09:30:13;60.58;;;35.67;;
58874;SDS011;44652;49.040;12.126;2023-02-11T09:32:39;62.17;;;37.72;;
58874;SDS011;44652;49.040;12.126;2023-02-11T09:35:06;60.25;;;37.03;;
58874;SDS011;44652;49.040;12.126;2023-02-11T09:37:32;62.60;;;38.15;;
58874;SDS011;44652;49.040;12.126;2023-02-11T09:40:02;62.60;;;36.47;;
58874;SDS011;44652;49.040;12.126;2023-02-11T09:45:09;66.07;;;37.97;;
58874;SDS011;44652;49.040;12.126;2023-02-11T09:47:38;63.20;;;36.22;;
58874;SDS011;44652;49.040;12.126;2023-02-11T09:50:18;66.05;;;37.08;;
58874;SDS011;44652;49.040;12.126;2023-02-11T09:52:53;61.42;;;36.33;;
58874;SDS011;44652;49.040;12.126;2023-02-11T09:57:48;59.88;;;36.78;;
58874;SDS011;44652;49.040;12.126;2023-02-11T10:00:19;64.95;;;38.40;;
58874;SDS011;44652;49.040;12.126;2023-02-11T10:05:29;62.53;;;37.25;;
58874;SDS011;44652;49.040;12.126;2023-02-11T10:08:08;63.95;;;36.55;;
58874;SDS011;44652;49.040;12.126;2023-02-11T10:10:51;65.40;;;37.65;;
58874;SDS011;44652;49.040;12.126;2023-02-11T10:13:35;70.32;;;37.70;;
58874;SDS011;44652;49.040;12.126;2023-02-11T10:21:31;61.72;;;36.08;;
58874;SDS011;44652;49.040;12.126;2023-02-11T10:24:02;60.55;;;35.42;;
58874;SDS011;44652;49.040;12.126;2023-02-11T10:26:30;63.65;;;36.20;;
58874;SDS011;44652;49.040;12.126;2023-02-11T10:28:59;67.88;;;37.05;;
58874;SDS011;44652;49.040;12.126;2023-02-11T10:33:58;62.60;;;34.45;;
58874;SDS011;44652;49.040;12.126;2023-02-11T10:36:27;56.30;;;33.05;;
58874;SDS011;44652;49.040;12.126;2023-02-11T10:38:54;61.13;;;35.63;;
58874;SDS011;44652;49.040;12.126;2023-02-11T10:41:25;60.28;;;35.60;;
58874;SDS011;44652;49.040;12.126;2023-02-11T10:43:53;56.63;;;34.22;;
58874;SDS011;44652;49.040;12.126;2023-02-11T10:46:24;55.75;;;34.47;;
58874;SDS011;44652;49.040;12.126;2023-02-11T10:48:52;58.78;;;35.97;;
58874;SDS011;44652;49.040;12.126;2023-02-11T10:51:28;57.95;;;35.28;;
58874;SDS011;44652;49.040;12.126;2023-02-11T10:56:33;56.28;;;35.25;;
58874;SDS011;44652;49.040;12.126;2023-02-11T10:59:01;55.00;;;34.03;;
58874;SDS011;44652;49.040;12.126;2023-02-11T11:01:36;55.05;;;33.72;;
58874;SDS011;44652;49.040;12.126;2023-02-11T11:04:03;57.03;;;34.17;;
58874;SDS011;44652;49.040;12.126;2023-02-11T11:06:31;57.58;;;34.72;;
58874;SDS011;44652;49.040;12.126;2023-02-11T11:08:58;58.57;;;36.00;;
58874;SDS011;44652;49.040;12.126;2023-02-11T11:11:25;55.35;;;34.67;;
58874;SDS011;44652;49.040;12.126;2023-02-11T11:16:19;53.15;;;34.58;;
58874;SDS011;44652;49.040;12.126;2023-02-11T11:21:23;60.22;;;34.72;;
58874;SDS011;44652;49.040;12.126;2023-02-11T11:23:57;59.97;;;35.42;;
58874;SDS011;44652;49.040;12.126;2023-02-11T11:26:25;58.55;;;35.72;;
58874;SDS011;44652;49.040;12.126;2023-02-11T11:31:23;57.00;;;35.17;;
58874;SDS011;44652;49.040;12.126;2023-02-11T11:33:50;57.58;;;34.90;;
58874;SDS011;44652;49.040;12.126;2023-02-11T11:36:19;57.17;;;35.28;;
58874;SDS011;44652;49.040;12.126;2023-02-11T11:38:48;52.55;;;33.70;;
58874;SDS011;44652;49.040;12.126;2023-02-11T11:41:17;52.30;;;33.83;;
58874;SDS011;44652;49.040;12.126;2023-02-11T11:46:28;59.13;;;36.65;;
58874;SDS011;44652;49.040;12.126;2023-02-11T11:49:00;60.55;;;37.45;;
58874;SDS011;44652;49.040;12.126;2023-02-11T11:51:29;55.65;;;35.28;;
58874;SDS011;44652;49.040;12.126;2023-02-11T11:54:01;54.72;;;33.75;;
58874;SDS011;44652;49.040;12.126;2023-02-11T11:56:31;53.47;;;34.45;;
58874;SDS011;44652;49.040;12.126;2023-02-11T11:58:59;54.55;;;33.85;;
58874;SDS011;44652;49.040;12.126;2023-02-11T12:01:30;56.15;;;35.10;;
58874;SDS011;44652;49.040;12.126;2023-02-11T12:11:40;57.20;;;34.55;;
58874;SDS011;44652;49.040;12.126;2023-02-11T12:14:20;56.42;;;34.25;;
58874;SDS011;44652;49.040;12.126;2023-02-11T12:29:49;54.83;;;35.55;;
58874;SDS011;44652;49.040;12.126;2023-02-11T12:42:34;54.00;;;34.33;;
58874;SDS011;44652;49.040;12.126;2023-02-11T12:45:43;54.95;;;33.13;;
58874;SDS011;44652;49.040;12.126;2023-02-11T12:51:00;53.33;;;34.70;;
58874;SDS011;44652;49.040;12.126;2023-02-11T12:56:07;51.55;;;33.35;;
58874;SDS011;44652;49.040;12.126;2023-02-11T12:58:36;57.50;;;34.50;;
58874;SDS011;44652;49.040;12.126;2023-02-11T13:01:18;57.78;;;33.50;;
58874;SDS011;44652;49.040;12.126;2023-02-11T13:03:47;57.45;;;35.45;;
58874;SDS011;44652;49.040;12.126;2023-02-11T13:06:17;56.65;;;35.08;;
58874;SDS011;44652;49.040;12.126;2023-02-11T13:08:47;55.63;;;33.42;;
58874;SDS011;44652;49.040;12.126;2023-02-11T13:11:22;56.42;;;35.33;;
58874;SDS011;44652;49.040;12.126;2023-02-11T13:13:56;52.70;;;34.42;;
58874;SDS011;44652;49.040;12.126;2023-02-11T13:16:29;53.10;;;33.90;;
58874;SDS011;44652;49.040;12.126;2023-02-11T13:19:13;66.10;;;37.05;;
58874;SDS011;44652;49.040;12.126;2023-02-11T13:26:45;55.35;;;33.70;;
58874;SDS011;44652;49.040;12.126;2023-02-11T13:31:55;55.80;;;33.78;;
58874;SDS011;44652;49.040;12.126;2023-02-11T13:34:26;58.63;;;33.57;;
58874;SDS011;44652;49.040;12.126;2023-02-11T13:37:18;51.63;;;32.95;;
58874;SDS011;44652;49.040;12.126;2023-02-11T13:39:56;51.33;;;32.60;;
58874;SDS011;44652;49.040;12.126;2023-02-11T13:42:23;54.08;;;33.30;;
58874;SDS011;44652;49.040;12.126;2023-02-11T13:44:49;67.82;;;35.75;;
58874;SDS011;44652;49.040;12.126;2023-02-11T13:47:26;50.17;;;33.22;;
58874;SDS011;44652;49.040;12.126;2023-02-11T13:49:55;61.53;;;33.05;;
58874;SDS011;44652;49.040;12.126;2023-02-11T13:54:49;50.25;;;33.38;;
58874;SDS011;44652;49.040;12.126;2023-02-11T13:59:50;52.15;;;33.03;;
58874;SDS011;44652;49.040;12.126;2023-02-11T14:02:21;48.83;;;31.67;;
58874;SDS011;44652;49.040;12.126;2023-02-11T14:21:22;55.40;;;33.63;;
58874;SDS011;44652;49.040;12.126;2023-02-11T14:23:49;52.15;;;33.42;;
58874;SDS011;44652;49.040;12.126;2023-02-11T14:31:43;48.88;;;32.83;;
58874;SDS011;44652;49.040;12.126;2023-02-11T14:42:18;52.90;;;33.80;;
58874;SDS011;44652;49.040;12.126;2023-02-11T14:44:47;51.17;;;33.28;;
58874;SDS011;44652;49.040;12.126;2023-02-11T14:47:18;52.35;;;32.50;;
58874;SDS011;44652;49.040;12.126;2023-02-11T14:49:46;51.22;;;31.80;;
58874;SDS011;44652;49.040;12.126;2023-02-11T14:52:15;49.10;;;32.45;;
58874;SDS011;44652;49.040;12.126;2023-02-11T14:54:45;50.10;;;32.47;;
58874;SDS011;44652;49.040;12.126;2023-02-11T14:57:15;51.15;;;33.88;;
58874;SDS011;44652;49.040;12.126;2023-02-11T14:59:55;52.72;;;33.85;;
58874;SDS011;44652;49.040;12.126;2023-02-11T15:02:27;49.17;;;33.92;;
58874;SDS011;44652;49.040;12.126;2023-02-11T15:05:11;52.50;;;32.72;;
58874;SDS011;44652;49.040;12.126;2023-02-11T15:07:42;53.50;;;34.75;;
58874;SDS011;44652;49.040;12.126;2023-02-11T15:10:14;57.25;;;33.72;;
58874;SDS011;44652;49.040;12.126;2023-02-11T15:12:40;51.45;;;33.08;;
58874;SDS011;44652;49.040;12.126;2023-02-11T15:15:12;49.63;;;32.97;;
58874;SDS011;44652;49.040;12.126;2023-02-11T15:17:40;51.03;;;34.17;;
58874;SDS011;44652;49.040;12.126;2023-02-11T15:20:12;57.75;;;36.05;;
58874;SDS011;44652;49.040;12.126;2023-02-11T15:22:41;57.40;;;35.13;;
58874;SDS011;44652;49.040;12.126;2023-02-11T15:25:09;52.78;;;34.72;;
58874;SDS011;44652;49.040;12.126;2023-02-11T15:27:38;60.67;;;34.97;;
58874;SDS011;44652;49.040;12.126;2023-02-11T15:32:31;52.67;;;33.45;;
58874;SDS011;44652;49.040;12.126;2023-02-11T15:34:58;57.15;;;34.90;;
58874;SDS011;44652;49.040;12.126;2023-02-11T15:37:25;58.30;;;35.50;;
58874;SDS011;44652;49.040;12.126;2023-02-11T15:39:53;63.53;;;35.63;;
58874;SDS011;44652;49.040;12.126;2023-02-11T15:42:26;57.45;;;35.25;;
58874;SDS011;44652;49.040;12.126;2023-02-11T15:47:40;58.55;;;35.40;;
58874;SDS011;44652;49.040;12.126;2023-02-11T15:50:17;56.22;;;34.13;;
58874;SDS011;44652;49.040;12.126;2023-02-11T15:52:45;57.25;;;35.90;;
58874;SDS011;44652;49.040;12.126;2023-02-11T15:55:13;52.92;;;35.50;;
58874;SDS011;44652;49.040;12.126;2023-02-11T15:57:48;58.22;;;35.17;;
58874;SDS011;44652;49.040;12.126;2023-02-11T16:00:16;59.58;;;35.97;;
58874;SDS011;44652;49.040;12.126;2023-02-11T16:02:44;56.55;;;35.35;;
58874;SDS011;44652;49.040;12.126;2023-02-11T16:07:53;54.05;;;35.30;;
58874;SDS011;44652;49.040;12.126;2023-02-11T16:13:30;57.92;;;36.15;;
58874;SDS011;44652;49.040;12.126;2023-02-11T16:15:44;59.42;;;36.22;;
58874;SDS011;44652;49.040;12.126;2023-02-11T16:18:25;56.00;;;35.85;;
58874;SDS011;44652;49.040;12.126;2023-02-11T16:21:04;53.70;;;34.28;;
58874;SDS011;44652;49.040;12.126;2023-02-11T16:23:33;54.95;;;34.67;;
58874;SDS011;44652;49.040;12.126;2023-02-11T16:28:27;51.95;;;31.98;;
58874;SDS011;44652;49.040;12.126;2023-02-11T16:30:54;57.63;;;33.75;;
58874;SDS011;44652;49.040;12.126;2023-02-11T16:33:21;52.55;;;34.13;;
58874;SDS011;44652;49.040;12.126;2023-02-11T16:35:48;53.00;;;34.22;;
58874;SDS011;44652;49.040;12.126;2023-02-11T16:38:16;53.47;;;34.33;;
58874;SDS011;44652;49.040;12.126;2023-02-11T16:40:42;57.28;;;36.30;;
58874;SDS011;44652;49.040;12.126;2023-02-11T16:43:11;52.47;;;35.10;;
58874;SDS011;44652;49.040;12.126;2023-02-11T16:45:37;58.10;;;37.17;;
58874;SDS011;44652;49.040;12.126;2023-02-11T16:48:05;55.78;;;37.03;;
58874;SDS011;44652;49.040;12.126;2023-02-11T16:50:32;60.30;;;37.35;;
58874;SDS011;44652;49.040;12.126;2023-02-11T16:52:59;53.90;;;35.22;;
58874;SDS011;44652;49.040;12.126;2023-02-11T16:55:27;55.30;;;36.35;;
58874;SDS011;44652;49.040;12.126;2023-02-11T16:57:53;53.80;;;33.85;;
58874;SDS011;44652;49.040;12.126;2023-02-11T17:00:20;59.50;;;36.85;;
58874;SDS011;44652;49.040;12.126;2023-02-11T17:02:47;56.97;;;36.78;;
58874;SDS011;44652;49.040;12.126;2023-02-11T17:05:15;68.95;;;42.63;;
58874;SDS011;44652;49.040;12.126;2023-02-11T17:07:42;57.95;;;37.88;;
58874;SDS011;44652;49.040;12.126;2023-02-11T17:10:12;55.78;;;35.65;;
58874;SDS011;44652;49.040;12.126;2023-02-11T17:12:39;56.65;;;35.70;;
58874;SDS011;44652;49.040;12.126;2023-02-11T17:15:06;54.38;;;35.05;;
58874;SDS011;44652;49.040;12.126;2023-02-11T17:17:33;57.17;;;36.83;;
58874;SDS011;44652;49.040;12.126;2023-02-11T17:19:59;59.13;;;36.95;;
58874;SDS011;44652;49.040;12.126;2023-02-11T17:22:26;63.72;;;39.40;;
58874;SDS011;44652;49.040;12.126;2023-02-11T17:24:52;70.57;;;46.65;;
58874;SDS011;44652;49.040;12.126;2023-02-11T17:27:21;64.03;;;42.53;;
58874;SDS011;44652;49.040;12.126;2023-02-11T17:29:48;63.63;;;40.45;;
58874;SDS011;44652;49.040;12.126;2023-02-11T17:32:14;59.00;;;40.08;;
58874;SDS011;44652;49.040;12.126;2023-02-11T17:34:41;60.95;;;38.85;;
58874;SDS011;44652;49.040;12.126;2023-02-11T17:37:07;61.25;;;38.28;;
58874;SDS011;44652;49.040;12.126;2023-02-11T17:39:35;55.38;;;36.22;;
58874;SDS011;44652;49.040;12.126;2023-02-11T17:42:01;60.15;;;37.17;;
58874;SDS011;44652;49.040;12.126;2023-02-11T17:44:28;56.45;;;36.38;;
58874;SDS011;44652;49.040;12.126;2023-02-11T17:46:55;61.47;;;37.55;;
58874;SDS011;44652;49.040;12.126;2023-02-11T17:49:21;66.18;;;38.78;;
58874;SDS011;44652;49.040;12.126;2023-02-11T17:51:48;64.07;;;36.40;;
58874;SDS011;44652;49.040;12.126;2023-02-11T17:54:16;65.55;;;38.00;;
58874;SDS011;44652;49.040;12.126;2023-02-11T17:56:43;75.28;;;39.33;;
58874;SDS011;44652;49.040;12.126;2023-02-11T17:59:11;62.55;;;36.88;;
58874;SDS011;44652;49.040;12.126;2023-02-11T18:01:39;56.38;;;35.20;;
58874;SDS011;44652;49.040;12.126;2023-02-11T18:04:06;54.50;;;34.88;;
58874;SDS011;44652;49.040;12.126;2023-02-11T18:06:33;62.80;;;38.15;;
58874;SDS011;44652;49.040;12.126;2023-02-11T18:08:59;59.63;;;38.13;;
58874;SDS011;44652;49.040;12.126;2023-02-11T18:11:28;67.93;;;39.15;;
58874;SDS011;44652;49.040;12.126;2023-02-11T18:13:58;65.72;;;40.05;;
58874;SDS011;44652;49.040;12.126;2023-02-11T18:16:25;65.43;;;39.50;;
58874;SDS011;44652;49.040;12.126;2023-02-11T18:21:20;61.22;;;38.03;;
58874;SDS011;44652;49.040;12.126;2023-02-11T18:23:48;63.38;;;38.70;;
58874;SDS011;44652;49.040;12.126;2023-02-11T18:26:16;59.55;;;37.55;;
58874;SDS011;44652;49.040;12.126;2023-02-11T18:28:43;60.25;;;38.17;;
58874;SDS011;44652;49.040;12.126;2023-02-11T18:31:11;59.15;;;38.28;;
58874;SDS011;44652;49.040;12.126;2023-02-11T18:33:39;64.25;;;40.90;;
58874;SDS011;44652;49.040;12.126;2023-02-11T18:36:07;70.70;;;41.25;;
58874;SDS011;44652;49.040;12.126;2023-02-11T18:38:34;69.47;;;42.00;;
58874;SDS011;44652;49.040;12.126;2023-02-11T18:41:00;62.67;;;40.13;;
58874;SDS011;44652;49.040;12.126;2023-02-11T18:43:28;67.82;;;39.95;;
58874;SDS011;44652;49.040;12.126;2023-02-11T18:45:59;62.50;;;37.97;;
58874;SDS011;44652;49.040;12.126;2023-02-11T18:48:26;67.25;;;41.25;;
58874;SDS011;44652;49.040;12.126;2023-02-11T18:50:53;64.57;;;39.97;;
58874;SDS011;44652;49.040;12.126;2023-02-11T18:53:20;58.50;;;37.22;;
58874;SDS011;44652;49.040;12.126;2023-02-11T18:55:47;59.28;;;38.53;;
58874;SDS011;44652;49.040;12.126;2023-02-11T18:58:14;61.78;;;39.80;;
58874;SDS011;44652;49.040;12.126;2023-02-11T19:00:42;68.60;;;42.63;;
58874;SDS011;44652;49.040;12.126;2023-02-11T19:03:08;66.35;;;40.38;;
58874;SDS011;44652;49.040;12.126;2023-02-11T19:05:45;60.28;;;38.63;;
58874;SDS011;44652;49.040;12.126;2023-02-11T19:08:11;58.50;;;38.58;;
58874;SDS011;44652;49.040;12.126;2023-02-11T19:10:39;62.67;;;38.53;;
58874;SDS011;44652;49.040;12.126;2023-02-11T19:13:06;59.58;;;38.17;;
58874;SDS011;44652;49.040;12.126;2023-02-11T19:15:33;62.00;;;40.38;;
58874;SDS011;44652;49.040;12.126;2023-02-11T19:17:59;60.85;;;38.75;;
58874;SDS011;44652;49.040;12.126;2023-02-11T19:20:26;62.90;;;38.25;;
58874;SDS011;44652;49.040;12.126;2023-02-11T19:22:52;55.20;;;36.92;;
58874;SDS011;44652;49.040;12.126;2023-02-11T19:25:19;57.90;;;37.90;;
58874;SDS011;44652;49.040;12.126;2023-02-11T19:27:45;55.22;;;37.58;;
58874;SDS011;44652;49.040;12.126;2023-02-11T19:30:12;57.75;;;37.60;;
58874;SDS011;44652;49.040;12.126;2023-02-11T19:32:38;61.80;;;39.28;;
58874;SDS011;44652;49.040;12.126;2023-02-11T19:35:05;60.65;;;38.95;;
58874;SDS011;44652;49.040;12.126;2023-02-11T19:37:31;63.20;;;41.20;;
58874;SDS011;44652;49.040;12.126;2023-02-11T19:39:58;60.17;;;38.60;;
58874;SDS011;44652;49.040;12.126;2023-02-11T19:42:24;59.92;;;38.40;;
58874;SDS011;44652;49.040;12.126;2023-02-11T19:44:53;56.05;;;36.92;;
58874;SDS011;44652;49.040;12.126;2023-02-11T19:47:19;63.50;;;41.25;;
58874;SDS011;44652;49.040;12.126;2023-02-11T19:49:52;58.20;;;38.55;;
58874;SDS011;44652;49.040;12.126;2023-02-11T19:52:19;59.25;;;40.05;;
58874;SDS011;44652;49.040;12.126;2023-02-11T19:54:46;57.13;;;39.17;;
58874;SDS011;44652;49.040;12.126;2023-02-11T19:57:12;57.08;;;37.30;;
58874;SDS011;44652;49.040;12.126;2023-02-11T19:59:39;59.88;;;38.50;;
58874;SDS011;44652;49.040;12.126;2023-02-11T20:02:05;57.17;;;39.60;;
58874;SDS011;44652;49.040;12.126;2023-02-11T20:04:32;61.05;;;39.05;;
58874;SDS011;44652;49.040;12.126;2023-02-11T20:06:58;64.32;;;41.75;;
58874;SDS011;44652;49.040;12.126;2023-02-11T20:09:25;72.07;;;49.13;;
58874;SDS011;44652;49.040;12.126;2023-02-11T20:11:53;67.13;;;43.67;;
58874;SDS011;44652;49.040;12.126;2023-02-11T20:14:20;69.15;;;42.97;;
58874;SDS011;44652;49.040;12.126;2023-02-11T20:16:46;64.20;;;42.40;;
58874;SDS011;44652;49.040;12.126;2023-02-11T20:19:16;68.60;;;42.85;;
58874;SDS011;44652;49.040;12.126;2023-02-11T20:21:44;65.93;;;41.50;;
58874;SDS011;44652;49.040;12.126;2023-02-11T20:24:13;68.90;;;42.58;;
58874;SDS011;44652;49.040;12.126;2023-02-11T20:26:39;67.57;;;43.00;;
58874;SDS011;44652;49.040;12.126;2023-02-11T20:29:07;63.75;;;42.97;;
58874;SDS011;44652;49.040;12.126;2023-02-11T20:31:34;66.35;;;41.50;;
58874;SDS011;44652;49.040;12.126;2023-02-11T20:34:01;71.95;;;45.83;;
58874;SDS011;44652;49.040;12.126;2023-02-11T20:36:28;65.45;;;41.90;;
58874;SDS011;44652;49.040;12.126;2023-02-11T20:39:00;61.13;;;41.50;;
58874;SDS011;44652;49.040;12.126;2023-02-11T20:41:29;59.58;;;37.88;;
58874;SDS011;44652;49.040;12.126;2023-02-11T20:43:58;62.90;;;40.63;;
58874;SDS011;44652;49.040;12.126;2023-02-11T20:46:26;62.75;;;41.20;;
58874;SDS011;44652;49.040;12.126;2023-02-11T20:48:53;71.20;;;45.20;;
58874;SDS011;44652;49.040;12.126;2023-02-11T20:51:22;67.53;;;44.03;;
58874;SDS011;44652;49.040;12.126;2023-02-11T20:53:49;73.85;;;46.25;;
58874;SDS011;44652;49.040;12.126;2023-02-11T20:56:18;69.07;;;44.33;;
58874;SDS011;44652;49.040;12.126;2023-02-11T20:58:45;71.20;;;45.30;;
58874;SDS011;44652;49.040;12.126;2023-02-11T21:01:12;70.47;;;45.22;;
58874;SDS011;44652;49.040;12.126;2023-02-11T21:03:42;69.30;;;42.03;;
58874;SDS011;44652;49.040;12.126;2023-02-11T21:06:10;70.30;;;42.47;;
58874;SDS011;44652;49.040;12.126;2023-02-11T21:08:36;70.90;;;42.63;;
58874;SDS011;44652;49.040;12.126;2023-02-11T21:11:03;75.18;;;45.13;;
58874;SDS011;44652;49.040;12.126;2023-02-11T21:13:34;71.80;;;43.72;;
58874;SDS011;44652;49.040;12.126;2023-02-11T21:16:01;75.18;;;45.55;;
58874;SDS011;44652;49.040;12.126;2023-02-11T21:18:27;65.38;;;41.03;;
58874;SDS011;44652;49.040;12.126;2023-02-11T21:20:54;64.00;;;40.35;;
58874;SDS011;44652;49.040;12.126;2023-02-11T21:23:21;62.10;;;39.38;;
58874;SDS011;44652;49.040;12.126;2023-02-11T21:25:47;66.97;;;40.42;;
58874;SDS011;44652;49.040;12.126;2023-02-11T21:28:14;63.90;;;39.78;;
58874;SDS011;44652;49.040;12.126;2023-02-11T21:30:41;59.13;;;38.42;;
58874;SDS011;44652;49.040;12.126;2023-02-11T21:33:07;61.10;;;40.08;;
58874;SDS011;44652;49.040;12.126;2023-02-11T21:35:35;59.10;;;40.17;;
58874;SDS011;44652;49.040;12.126;2023-02-11T21:38:01;57.72;;;37.88;;
58874;SDS011;44652;49.040;12.126;2023-02-11T21:40:28;63.60;;;39.92;;
58874;SDS011;44652;49.040;12.126;2023-02-11T21:42:55;64.25;;;40.67;;
58874;SDS011;44652;49.040;12.126;2023-02-11T21:45:23;61.47;;;40.30;;
58874;SDS011;44652;49.040;12.126;2023-02-11T21:47:50;61.08;;;39.00;;
58874;SDS011;44652;49.040;12.126;2023-02-11T21:50:17;56.67;;;36.97;;
58874;SDS011;44652;49.040;12.126;2023-02-11T21:52:43;61.88;;;38.83;;
58874;SDS011;44652;49.040;12.126;2023-02-11T21:55:10;59.10;;;38.05;;
58874;SDS011;44652;49.040;12.126;2023-02-11T21:57:37;60.80;;;40.38;;
58874;SDS011;44652;49.040;12.126;2023-02-11T22:00:04;57.00;;;38.33;;
58874;SDS011;44652;49.040;12.126;2023-02-11T22:02:31;60.88;;;40.30;;
58874;SDS011;44652;49.040;12.126;2023-02-11T22:04:57;65.40;;;39.90;;
58874;SDS011;44652;49.040;12.126;2023-02-11T22:07:24;61.03;;;39.05;;
58874;SDS011;44652;49.040;12.126;2023-02-11T22:09:53;61.00;;;38.92;;
58874;SDS011;44652;49.040;12.126;2023-02-11T22:12:21;53.13;;;36.97;;
58874;SDS011;44652;49.040;12.126;2023-02-11T22:14:48;61.60;;;39.63;;
58874;SDS011;44652;49.040;12.126;2023-02-11T22:17:14;55.35;;;38.63;;
58874;SDS011;44652;49.040;12.126;2023-02-11T22:19:41;58.22;;;38.80;;
58874;SDS011;44652;49.040;12.126;2023-02-11T22:22:07;62.47;;;40.53;;
58874;SDS011;44652;49.040;12.126;2023-02-11T22:24:35;55.55;;;37.63;;
58874;SDS011;44652;49.040;12.126;2023-02-11T22:27:01;78.00;;;43.30;;
58874;SDS011;44652;49.040;12.126;2023-02-11T22:29:28;66.03;;;42.00;;
58874;SDS011;44652;49.040;12.126;2023-02-11T22:31:55;60.60;;;38.97;;
58874;SDS011;44652;49.040;12.126;2023-02-11T22:34:22;65.72;;;41.63;;
58874;SDS011;44652;49.040;12.126;2023-02-11T22:36:49;68.70;;;42.25;;
58874;SDS011;44652;49.040;12.126;2023-02-11T22:39:15;63.63;;;41.45;;
58874;SDS011;44652;49.040;12.126;2023-02-11T22:41:43;64.18;;;42.50;;
58874;SDS011;44652;49.040;12.126;2023-02-11T22:44:10;62.03;;;37.95;;
58874;SDS011;44652;49.040;12.126;2023-02-11T22:46:38;64.53;;;41.10;;
58874;SDS011;44652;49.040;12.126;2023-02-11T22:49:05;57.35;;;39.08;;
58874;SDS011;44652;49.040;12.126;2023-02-11T22:51:32;56.75;;;38.08;;
58874;SDS011;44652;49.040;12.126;2023-02-11T22:54:00;61.55;;;39.42;;
58874;SDS011;44652;49.040;12.126;2023-02-11T22:56:27;66.22;;;42.28;;
58874;SDS011;44652;49.040;12.126;2023-02-11T22:58:58;67.65;;;41.30;;
58874;SDS011;44652;49.040;12.126;2023-02-11T23:01:25;62.78;;;39.60;;
58874;SDS011;44652;49.040;12.126;2023-02-11T23:03:52;57.15;;;39.47;;
58874;SDS011;44652;49.040;12.126;2023-02-11T23:06:18;61.00;;;38.95;;
58874;SDS011;44652;49.040;12.126;2023-02-11T23:08:45;60.38;;;38.53;;
58874;SDS011;44652;49.040;12.126;2023-02-11T23:13:39;78.30;;;48.13;;
58874;SDS011;44652;49.040;12.126;2023-02-11T23:16:07;81.57;;;49.10;;
58874;SDS011;44652;49.040;12.126;2023-02-11T23:18:34;77.10;;;46.08;;
58874;SDS011;44652;49.040;12.126;2023-02-11T23:21:05;68.97;;;43.47;;
58874;SDS011;44652;49.040;12.126;2023-02-11T23:23:32;72.80;;;44.25;;
58874;SDS011;44652;49.040;12.126;2023-02-11T23:25:59;72.35;;;45.03;;
58874;SDS011;44652;49.040;12.126;2023-02-11T23:28:26;71.28;;;45.08;;
58874;SDS011;44652;49.040;12.126;2023-02-11T23:30:53;70.72;;;43.38;;
58874;SDS011;44652;49.040;12.126;2023-02-11T23:33:20;64.80;;;42.38;;